Flight Track Log - Related Links

Times and Time Zones

All times are in EDT time to prevent confusion due to time zone crossing. See the SWA2520 flight status page for this flight to view local times or setup timezone preferences in your user account.

Time Position Orientation Groundspeed Altitude Reporting Facility
EDT Latitude Longitude Course Direction KTS MPH feet Rate Location/Type
Tue 07:34:53 PM 37.4000 -121.9667 67° East 192 221 3,400  Level Northern Cal TRACON
Tue 07:35:53 PM 37.4167 -121.9167 67° East 213 245 5,100 2,400 Climbing Northern Cal TRACON
Tue 07:36:53 PM 37.3667 -121.8500 133° Southeast 231 266 8,200 2,734 Climbing Northern Cal TRACON
Tue 07:37:12 PM 37.3511 -121.8406 154° Southeast 222 255 8,700 2,025 Climbing Oakland Center
Tue 07:38:13 PM 37.2881 -121.7733 140° Southeast 292 336 10,900 2,705 Climbing Oakland Center
Tue 07:39:14 PM 37.2156 -121.6919 138° Southeast 339 390 14,200 3,393 Climbing Oakland Center
Tue 07:40:15 PM 37.1375 -121.6042 138° Southeast 368 423 17,800 3,590 Climbing Oakland Center
Tue 07:41:16 PM 37.0547 -121.5103 138° Southeast 395 455 21,500 3,122 Climbing Oakland Center
Tue 07:42:18 PM 36.9711 -121.4122 137° Southeast 408 470 24,200 2,634 Climbing Oakland Center
Tue 07:43:19 PM 36.8814 -121.3117 138° Southeast 428 493 26,900 2,803 Climbing Oakland Center
Tue 07:44:20 PM 36.7689 -121.1942 140° Southeast 446 513 29,900 2,459 Climbing Oakland Center
Tue 07:45:21 PM 36.6719 -121.0883 139° Southeast 459 528 31,900 2,115 Climbing Oakland Center
Tue 07:46:22 PM 36.5747 -120.9792 138° Southeast 467 537 34,200 2,098 Climbing Oakland Center
Tue 07:47:24 PM 36.4767 -120.8717 139° Southeast 469 540 36,200 1,805 Climbing Oakland Center
Tue 07:48:25 PM 36.3794 -120.7633 138° Southeast 468 539 37,900 1,623 Climbing Oakland Center
Tue 07:49:26 PM 36.2794 -120.6583 140° Southeast 470 541 39,500 1,525 Climbing Oakland Center
Tue 07:50:27 PM 36.1822 -120.5503 138° Southeast 469 540 41,000 732 Climbing Oakland Center
Tue 07:51:29 PM 36.0831 -120.4453 139° Southeast 468 539 41,000  Level Oakland Center
Tue 07:52:30 PM 35.9858 -120.3403 139° Southeast 464 534 41,000  Level Oakland Center
Tue 07:53:31 PM 35.8892 -120.2358 139° Southeast 462 532 41,000  Level Oakland Center
Tue 07:54:32 PM 35.7917 -120.1328 139° Southeast 459 528 41,000  Level Oakland Center
Tue 07:55:33 PM 35.6758 -120.0075 139° Southeast 458 527 41,000  Level Oakland Center
Tue 07:56:35 PM 35.5747 -119.9136 143° Southeast 453 521 41,000  Level Oakland Center
Tue 07:57:36 PM 35.4708 -119.8242 145° Southeast 451 519 41,000 -98 Level Oakland Center
Tue 07:58:37 PM 35.3669 -119.7356 145° Southeast 452 520 40,800 -590 Descending Oakland Center
Tue 07:59:38 PM 35.2631 -119.6472 145° Southeast 453 521 39,800 -1,268 Descending Oakland Center
Tue 08:00:40 PM 35.1581 -119.5575 145° Southeast 459 528 38,200 -2,256 Descending Oakland Center
Tue 08:01:51 PM 35.0358 -119.4542 145° Southeast 451 519 34,800 -3,158 Descending Los Angeles Center
Tue 08:02:53 PM 34.9300 -119.3636 145° Southeast 459 528 31,200 -3,290 Descending Los Angeles Center
Tue 08:03:55 PM 34.8247 -119.2736 145° Southeast 462 532 28,000 -2,855 Descending Los Angeles Center
Tue 08:04:57 PM 34.7217 -119.1861 145° Southeast 454 522 25,300 -2,855 Descending Los Angeles Center
Tue 08:05:59 PM 34.6033 -119.0906 146° Southeast 445 512 22,100 -2,855 Descending Los Angeles Center
Tue 08:07:01 PM 34.5092 -119.0072 144° Southeast 419 482 19,400 -2,661 Descending Los Angeles Center
Tue 08:08:03 PM 34.4167 -118.9308 146° Southeast 402 463 16,600 -2,129 Descending Los Angeles Center
Tue 08:09:05 PM 34.3208 -118.8683 152° Southeast 389 448 15,000 -1,742 Descending Los Angeles Center
Tue 08:10:07 PM 34.2219 -118.8317 163° South 370 426 13,000 -1,584 Descending Los Angeles Center
Tue 08:11:10 PM 34.1128 -118.7919 163° South 336 387 11,700 -1,392 Descending Los Angeles Center
Tue 08:12:12 PM 34.0711 -118.7031 119° Southeast 325 374 10,100 -1,258 Descending Los Angeles Center
Tue 08:13:14 PM 34.0442 -118.5939 107° East 316 364 9,100 -1,210 Descending Los Angeles Center
Tue 08:14:16 PM 34.0192 -118.4947 107° East 310 357 7,600 -1,258 Descending Los Angeles Center
Tue 08:15:18 PM 34.0192 -118.4056 90° East 292 336 6,500 -1,016 Descending Los Angeles Center
Tue 08:16:20 PM 34.0272 -118.3167 84° East 273 314 5,500 -968 Descending Los Angeles Center
Tue 08:17:22 PM 34.0375 -118.2375 81° East 249 287 4,500 -968 Descending Los Angeles Center
Tue 08:18:24 PM 34.0467 -118.1525 83° East 220 253 3,500 -1,047 Descending Los Angeles Center
Tue 08:18:48 PM 34.0500 -118.1167 84° East 207 238 3,000 -643 Descending Southern California TRACON
Tue 08:19:48 PM 33.9833 -118.1167 180° South 210 242 2,600 -240 Descending Southern California TRACON
Tue 08:20:28 PM 33.9781 -118.1547 261° West 204 235 2,600  Level Los Angeles Center
Tue 08:21:30 PM 33.9706 -118.2217 262° West 204 235 2,600 -290 Level Los Angeles Center
Tue 08:22:32 PM 33.9642 -118.2850 263° West 198 228 2,000 -774 Descending Los Angeles Center
Tue 08:23:34 PM 33.9581 -118.3506 264° West 179 206 1,000 -823 Descending Los Angeles Center
Tue 08:24:36 PM 33.9542 -118.3906 263° West 143 165 300 -387 Descending Los Angeles Center
Tue 08:25:38 PM 33.9486 -118.4292 260° West 139 160 200 -97 Descending Los Angeles Center
Tue 08:27:00 PM 33.9425 -118.4081 90° East  Level Estimated

Login

Don't have an account? Register now (free) for customized features, flight alerts, and more!